Somers, CT (06071)

3:50 AM EST on January 19, 2017 (GMT -0500)
Somers Wx @Heron Pond | | Change Station
Active Advisory: Special Statement

Elev 265 ft 42.00 °N, 72.44 °W | Updated 18 seconds ago

Overcast
Overcast
34.2 °F
Feels Like 34 °F
N
0.0
Wind Variable Wind from NNE
Gusts 0.0 mph

Today
High -- | Low -- °F
--% Chance of Precip.
Yesterday
High -- | Low -- °F
Precip. -- in
Pressure 30.01 in
Visibility 9.0 miles
Clouds Few 1700 ft
Mostly Cloudy 3000 ft
Overcast 4700 ft
Windchill 34 °F
Dew Point 33 °F
Humidity 96%
Rainfall 0.00 in
Snow Depth Not available.
7:13 AM 4:48 PM
Waning Gibbous, 55% visible
SPECI KBDL 190807Z 00000KT 9SM FEW017 BKN030 OVC047 01/00 A3001 RMK AO2 T00060000
Pressure 30.01 in
Visibility 9.0 miles
Clouds Few 1700 ft
Mostly Cloudy 3000 ft
Overcast 4700 ft
Windchill 34 °F
Dew Point 33 °F
Humidity 96%
Rainfall 0.00 in
Snow Depth Not available.
7:13 AM 4:48 PM
Waning Gibbous, 55% visible
SPECI KBDL 190807Z 00000KT 9SM FEW017 BKN030 OVC047 01/00 A3001 RMK AO2 T00060000

Get Your Daily Forecast Email!

Thanks for signing up!

Be on the lookout for a verification email in your inbox.

You'll start receiving the daily forecast at 8 AM.

×

10-Day Weather Forecast

Almanac

Astronomy

Jan. 19, 2017 Rise Set
Actual Time
Civil Twilight
Nautical Twilight
Astronomical Twilight
Moon
Length of Visible Light
Length of Day
Tomorrow will be .
, % of the Moon is Illuminated

Today's Extremes

State Highs State Lows

Community

WunderPhotos

Upload Photos

1,962,540 photos uploaded!

WunderBlog® & News

Nearby

Air Quality

  Air Quality AQ Index Pollutant
Not available.

Snow Depth

Station Depth Elevation

Earthquake Activity

City Distance Mag. Time & Date
Minimum magnitude displayed is 2.5.

Coastal Water Temperatures

Place Temperature

Stations

Nearby Weather Stations

Station Location Temp. Windchill Dew Point Humidity Wind Precip. Elev Updated Type
                   

Watches & Warnings

Special Statement
Issued: 12:08 AM EST Jan. 19, 2017 – National Weather Service

... Hazardous travel conditions with black ice...

Wherever temperatures are at or below freezing into the morning
hours there will likely be black ice resulting in hazardous icy
conditions particularly on untreated surfaces, bridges and
overpasses. Please exercise caution when heading out.


Sipprell


1208 am EST Thu Jan 19 2017

... Hazardous travel conditions with black ice...

Wherever temperatures are at or below freezing into the morning
hours there will likely be black ice resulting in hazardous icy
conditions particularly on untreated surfaces, bridges and
overpasses. Please exercise caution when heading out.


Sipprell

1208 am EST Thu Jan 19 2017

... Hazardous travel conditions with black ice...

Wherever temperatures are at or below freezing into the morning
hours there will likely be black ice resulting in hazardous icy
conditions particularly on untreated surfaces, bridges and
overpasses. Please exercise caution when heading out.


Sipprell